Ledbetter, Kentucky
Current Conditions -  °F | °C
As of 9:53 AM on Saturday 22 Nov 2014 (Local Time) from KPAH Reporting Station
Overcast Overcast  
Wind Chill: 58°   Ceiling: 5000
Heat Index: 58°   Visibility: 10mi
Dew Point: 40°   Wind: 9mph
Humidity: 51%   Direction: 180°S
Pressure: 30.22"   Gusts: 22mph
Location:  37.05°N, 88.5°W
Report Text: KPAH 221553Z 18008G19KT 10SM OVC050 14/04 A3022 RMK AO2 SLP233 T01440044
Loading
Personal Weather Stations






























Interactive Weather Map New forecast layout! Learn more

10-Day Weather Forecast

Advertisements
Track Severe Weather on mobile